createdAt,value
2024-01-28T00:00:01.212Z,3.01
2024-01-28T00:02:30.506Z,2.94
2024-01-28T00:04:57.750Z,2.93
2024-01-28T00:07:24.709Z,2.89
2024-01-28T00:09:51.881Z,2.84
2024-01-28T00:12:18.839Z,2.82
2024-01-28T00:14:46.163Z,2.88
2024-01-28T00:17:15.455Z,2.92
2024-01-28T00:19:42.921Z,2.93
2024-01-28T00:22:10.005Z,2.94
2024-01-28T00:24:37.251Z,2.92
2024-01-28T00:27:04.421Z,2.93
2024-01-28T00:29:31.805Z,2.88
2024-01-28T00:32:00.327Z,2.80
2024-01-28T00:34:28.261Z,2.70
2024-01-28T00:36:55.292Z,2.69
2024-01-28T00:39:26.127Z,2.67
2024-01-28T00:41:53.074Z,2.71
2024-01-28T00:44:20.517Z,2.71
2024-01-28T00:46:47.468Z,2.71
2024-01-28T00:49:14.929Z,2.69
2024-01-28T00:51:41.950Z,2.63
2024-01-28T00:54:09.330Z,2.49
2024-01-28T00:56:38.760Z,2.36
2024-01-28T00:59:06.098Z,2.22
2024-01-28T01:01:33.081Z,2.06
2024-01-28T01:04:02.576Z,1.98
2024-01-28T01:06:29.884Z,1.93
2024-01-28T01:08:59.651Z,2.04
2024-01-28T01:11:26.704Z,2.00
2024-01-28T01:13:53.970Z,1.99
2024-01-28T01:16:20.909Z,1.82
2024-01-28T01:18:48.472Z,1.77
2024-01-28T01:21:15.510Z,1.66
2024-01-28T01:23:43.010Z,1.54
2024-01-28T01:26:10.987Z,1.55
2024-01-28T01:28:38.349Z,1.46
2024-01-28T01:31:05.696Z,1.42
2024-01-28T01:33:33.108Z,1.38
2024-01-28T01:36:00.425Z,1.34
2024-01-28T01:38:27.827Z,1.43
2024-01-28T01:40:54.802Z,1.48
2024-01-28T01:43:25.899Z,1.68
2024-01-28T01:45:53.924Z,1.76
2024-01-28T01:48:21.735Z,2.15
2024-01-28T01:50:48.727Z,2.26
2024-01-28T01:53:16.937Z,2.26
2024-01-28T01:55:43.936Z,2.27
2024-01-28T01:58:11.429Z,2.27
2024-01-28T02:00:38.983Z,2.24
2024-01-28T02:03:06.559Z,2.14
2024-01-28T02:05:33.704Z,2.14
2024-01-28T02:08:03.579Z,2.19
2024-01-28T02:10:30.875Z,2.28
2024-01-28T02:12:58.388Z,2.28
2024-01-28T02:15:27.931Z,2.23
2024-01-28T02:17:56.827Z,2.32
2024-01-28T02:20:23.923Z,2.38
2024-01-28T02:22:53.633Z,2.36
2024-01-28T02:25:23.212Z,2.39
2024-01-28T02:27:53.446Z,2.37
2024-01-28T02:30:20.624Z,2.35
2024-01-28T02:32:51.358Z,2.34
2024-01-28T02:35:18.933Z,2.21
2024-01-28T02:37:46.120Z,2.10
2024-01-28T02:40:13.236Z,1.95
2024-01-28T02:42:40.489Z,1.78
2024-01-28T02:45:08.672Z,1.67
2024-01-28T02:47:35.962Z,1.56
2024-01-28T02:50:03.150Z,1.45
2024-01-28T02:52:32.660Z,1.34
2024-01-28T02:54:59.827Z,1.19
2024-01-28T02:57:29.459Z,1.06
2024-01-28T02:59:56.868Z,1.00
2024-01-28T03:02:26.512Z,0.94
2024-01-28T03:04:53.446Z,0.86
2024-01-28T03:07:20.740Z,0.85
2024-01-28T03:09:47.683Z,0.86
2024-01-28T03:12:15.138Z,1.01
2024-01-28T03:14:42.224Z,1.13
2024-01-28T03:17:09.431Z,1.10
2024-01-28T03:19:36.417Z,1.21
2024-01-28T03:22:04.438Z,1.20
2024-01-28T03:24:31.500Z,1.36
2024-01-28T03:26:58.678Z,1.42
2024-01-28T03:29:25.634Z,1.41
2024-01-28T03:31:52.882Z,1.48
2024-01-28T03:34:19.961Z,1.57
2024-01-28T03:36:47.507Z,1.65
2024-01-28T03:39:17.340Z,1.76
2024-01-28T03:41:44.670Z,1.74
2024-01-28T03:44:11.589Z,1.63
2024-01-28T03:46:39.778Z,1.61
2024-01-28T03:49:06.857Z,1.55
2024-01-28T03:51:34.367Z,1.47
2024-01-28T03:54:01.366Z,1.36
2024-01-28T03:56:28.740Z,1.28
2024-01-28T03:58:55.634Z,1.14
2024-01-28T04:01:33.036Z,1.01
2024-01-28T04:04:02.913Z,0.91
2024-01-28T04:06:30.280Z,0.83
2024-01-28T04:08:57.403Z,0.74
2024-01-28T04:11:25.706Z,0.65
2024-01-28T04:13:54.692Z,0.57
2024-01-28T04:16:22.272Z,0.47
2024-01-28T04:18:49.644Z,0.40
2024-01-28T04:21:17.025Z,0.31
2024-01-28T04:23:45.107Z,0.22
2024-01-28T04:26:12.381Z,0.15
2024-01-28T04:28:42.751Z,0.23
2024-01-28T04:31:10.069Z,0.15
2024-01-28T04:33:37.544Z,0.24
2024-01-28T04:36:05.106Z,0.28
2024-01-28T04:38:32.100Z,0.28
2024-01-28T04:40:59.395Z,0.22
2024-01-28T04:43:26.233Z,0.24
2024-01-28T04:45:53.664Z,0.19
2024-01-28T04:48:21.080Z,0.11
2024-01-28T04:50:48.285Z,0.06
2024-01-28T04:53:15.333Z,0.04
2024-01-28T04:55:42.574Z,0.04
2024-01-28T04:58:09.649Z,-0.04
2024-01-28T05:00:36.865Z,-0.04
2024-01-28T05:03:06.982Z,-0.11
2024-01-28T05:05:34.579Z,-0.13
2024-01-28T05:08:01.604Z,-0.14
2024-01-28T05:10:28.961Z,-0.23
2024-01-28T05:12:55.905Z,-0.21
2024-01-28T05:15:23.493Z,-0.09
2024-01-28T05:17:51.505Z,-0.03
2024-01-28T05:20:19.254Z,-0.04
2024-01-28T05:22:48.600Z,-0.03
2024-01-28T05:25:15.779Z,-0.05
2024-01-28T05:27:42.688Z,-0.10
2024-01-28T05:30:11.178Z,-0.08
2024-01-28T05:32:38.994Z,-0.11
2024-01-28T05:35:06.325Z,-0.15
2024-01-28T05:37:33.737Z,-0.11
2024-01-28T05:40:00.648Z,-0.17
2024-01-28T05:42:30.707Z,-0.20
2024-01-28T05:44:57.654Z,-0.21
2024-01-28T05:47:27.190Z,-0.28
2024-01-28T05:49:54.318Z,-0.24
2024-01-28T05:52:21.564Z,-0.21
2024-01-28T05:54:48.469Z,-0.16
2024-01-28T05:57:15.905Z,-0.14
2024-01-28T05:59:42.804Z,-0.12
2024-01-28T06:02:09.999Z,-0.15
2024-01-28T06:04:37.014Z,-0.20
2024-01-28T06:07:04.962Z,-0.22
2024-01-28T06:09:32.615Z,-0.18
2024-01-28T06:11:59.978Z,-0.20
2024-01-28T06:14:28.522Z,-0.20
2024-01-28T06:16:56.187Z,-0.16
2024-01-28T06:19:23.242Z,-0.12
2024-01-28T06:21:50.580Z,-0.06
2024-01-28T06:24:17.469Z,-0.07
2024-01-28T06:26:44.850Z,-0.04
2024-01-28T06:29:12.267Z,0.01
2024-01-28T06:31:39.435Z,0.00
2024-01-28T06:34:06.382Z,0.03
2024-01-28T06:36:34.371Z,0.03
2024-01-28T06:39:03.601Z,0.04
2024-01-28T06:41:30.835Z,0.09
2024-01-28T06:44:00.106Z,0.27
2024-01-28T06:46:27.279Z,0.34
2024-01-28T06:48:54.247Z,0.47
2024-01-28T06:51:21.649Z,0.65
2024-01-28T06:53:49.267Z,0.72
2024-01-28T06:56:16.527Z,0.64
2024-01-28T06:58:43.717Z,0.68
2024-01-28T07:01:11.985Z,0.89
2024-01-28T07:03:39.073Z,1.18
2024-01-28T07:06:06.547Z,1.39
2024-01-28T07:08:33.423Z,1.60
2024-01-28T07:11:02.535Z,2.11
2024-01-28T07:13:29.373Z,3.08
2024-01-28T07:15:56.780Z,4.55
2024-01-28T07:18:23.785Z,5.70
2024-01-28T07:20:51.095Z,6.53
2024-01-28T07:23:18.047Z,6.94
2024-01-28T07:25:45.615Z,6.31
2024-01-28T07:28:15.431Z,6.24
2024-01-28T07:30:42.728Z,5.76
2024-01-28T07:33:10.330Z,5.04
2024-01-28T07:35:37.837Z,4.22
2024-01-28T07:38:04.963Z,3.47
2024-01-28T07:40:32.260Z,2.94
2024-01-28T07:42:59.279Z,2.89
2024-01-28T07:45:26.809Z,3.42
2024-01-28T07:47:53.873Z,4.44
2024-01-28T07:50:22.274Z,5.78
2024-01-28T07:52:49.449Z,7.05
2024-01-28T07:55:16.685Z,7.88
2024-01-28T07:57:46.698Z,8.56
2024-01-28T08:00:14.334Z,9.15
2024-01-28T08:02:41.386Z,9.07
2024-01-28T08:05:08.780Z,9.60
2024-01-28T08:07:35.821Z,9.88
2024-01-28T08:10:03.250Z,10.15
2024-01-28T08:12:30.295Z,10.33
2024-01-28T08:15:00.293Z,10.45
2024-01-28T08:17:27.772Z,10.30
2024-01-28T08:19:57.541Z,10.19
2024-01-28T08:22:26.024Z,9.56
2024-01-28T08:24:55.590Z,8.97
2024-01-28T08:27:22.707Z,8.87
2024-01-28T08:29:53.011Z,8.51
2024-01-28T08:32:20.681Z,7.76
2024-01-28T08:34:50.540Z,7.36
2024-01-28T08:37:18.187Z,7.19
2024-01-28T08:39:45.478Z,6.84
2024-01-28T08:42:13.262Z,6.82
2024-01-28T08:44:41.120Z,6.69
2024-01-28T08:47:08.318Z,6.34
2024-01-28T08:49:35.614Z,6.20
2024-01-28T08:52:02.992Z,6.06
2024-01-28T08:54:32.099Z,6.14
2024-01-28T08:57:01.277Z,6.11
2024-01-28T08:59:28.525Z,6.31
2024-01-28T09:01:56.784Z,6.12
2024-01-28T09:04:24.108Z,6.03
2024-01-28T09:06:51.148Z,6.10
2024-01-28T09:09:18.353Z,6.21
2024-01-28T09:11:45.529Z,6.29
2024-01-28T09:14:12.823Z,6.14
2024-01-28T09:16:39.723Z,6.09
2024-01-28T09:19:07.305Z,6.26
2024-01-28T09:21:34.378Z,6.31
2024-01-28T09:24:01.709Z,6.29
2024-01-28T09:26:28.751Z,6.35
2024-01-28T09:28:55.974Z,6.44
2024-01-28T09:31:23.058Z,6.45
2024-01-28T09:33:50.374Z,6.53
2024-01-28T09:36:17.817Z,6.61
2024-01-28T09:38:45.155Z,6.55
2024-01-28T09:41:22.727Z,6.63
2024-01-28T09:43:50.227Z,6.66
2024-01-28T09:46:17.708Z,6.68
2024-01-28T09:48:47.436Z,6.66
2024-01-28T09:51:14.542Z,6.88
2024-01-28T09:53:43.235Z,6.74
2024-01-28T09:56:11.821Z,6.85
2024-01-28T09:58:40.693Z,6.78
2024-01-28T10:01:08.388Z,6.88
2024-01-28T10:03:35.988Z,6.94
2024-01-28T10:06:03.018Z,6.85
2024-01-28T10:08:31.375Z,6.99
2024-01-28T10:11:02.555Z,7.06
2024-01-28T10:13:32.890Z,7.11
2024-01-28T10:15:59.900Z,7.14
2024-01-28T10:18:30.124Z,7.22
2024-01-28T10:20:57.275Z,7.15
2024-01-28T10:23:24.529Z,7.19
2024-01-28T10:25:51.407Z,7.18
2024-01-28T10:28:18.572Z,7.22
2024-01-28T10:30:49.184Z,7.16
2024-01-28T10:33:16.724Z,7.08
2024-01-28T10:35:47.051Z,7.14
2024-01-28T10:38:23.724Z,7.13
2024-01-28T10:40:52.048Z,7.23
2024-01-28T10:43:22.907Z,7.34
2024-01-28T10:45:52.894Z,7.35
2024-01-28T10:48:23.854Z,7.37
2024-01-28T10:50:52.093Z,7.53
2024-01-28T10:53:19.800Z,7.69
2024-01-28T10:55:47.465Z,7.83
2024-01-28T10:58:14.993Z,7.86
2024-01-28T11:00:42.263Z,7.78
2024-01-28T11:03:10.234Z,7.85
2024-01-28T11:05:38.037Z,7.95
2024-01-28T11:08:05.677Z,7.83
2024-01-28T11:10:34.003Z,7.78
2024-01-28T11:13:04.501Z,7.72
2024-01-28T11:15:34.507Z,7.81
2024-01-28T11:18:03.053Z,7.91
2024-01-28T11:20:34.468Z,7.84
2024-01-28T11:23:06.213Z,7.82
2024-01-28T11:25:34.676Z,7.68
2024-01-28T11:28:03.098Z,7.75
2024-01-28T11:30:30.461Z,7.86
2024-01-28T11:32:58.981Z,7.88
2024-01-28T11:35:26.936Z,7.74
2024-01-28T11:37:58.716Z,7.69
2024-01-28T11:40:31.516Z,7.77
2024-01-28T11:42:59.304Z,7.69
2024-01-28T11:45:26.923Z,7.69
2024-01-28T11:47:56.672Z,7.82
2024-01-28T11:50:23.987Z,7.87
2024-01-28T11:52:51.080Z,7.84
2024-01-28T11:55:18.588Z,7.78
2024-01-28T11:57:49.410Z,7.61
2024-01-28T12:00:16.974Z,7.56
2024-01-28T12:02:44.391Z,7.57
2024-01-28T12:05:12.120Z,7.62
2024-01-28T12:07:40.153Z,7.63
2024-01-28T12:10:08.627Z,7.74
2024-01-28T12:12:35.953Z,7.76
2024-01-28T12:15:04.833Z,7.72
2024-01-28T12:17:44.030Z,7.77
2024-01-28T12:20:21.522Z,7.83
2024-01-28T12:22:48.715Z,7.82
2024-01-28T12:25:20.945Z,7.74
2024-01-28T12:27:49.720Z,7.82
2024-01-28T12:30:19.149Z,7.65
2024-01-28T12:32:46.335Z,7.66
2024-01-28T12:35:15.358Z,7.66
2024-01-28T12:37:42.640Z,7.59
2024-01-28T12:40:10.764Z,7.50
2024-01-28T12:42:39.764Z,7.46
2024-01-28T12:45:07.877Z,7.42
2024-01-28T12:47:35.517Z,7.46
2024-01-28T12:50:04.532Z,7.43
2024-01-28T12:52:31.690Z,7.42
2024-01-28T12:54:59.030Z,7.48
2024-01-28T12:57:26.098Z,7.52
2024-01-28T12:59:53.509Z,7.50
2024-01-28T13:02:20.403Z,7.42
2024-01-28T13:04:48.957Z,7.41
2024-01-28T13:07:18.426Z,7.42
2024-01-28T13:09:45.801Z,7.43
2024-01-28T13:12:13.006Z,7.41
2024-01-28T13:14:40.400Z,7.37
2024-01-28T13:17:07.585Z,7.35
2024-01-28T13:19:34.813Z,7.27
2024-01-28T13:22:02.056Z,7.33
2024-01-28T13:24:29.253Z,7.32
2024-01-28T13:26:56.317Z,7.32
2024-01-28T13:29:23.679Z,7.33
2024-01-28T13:31:50.789Z,7.32
2024-01-28T13:34:18.210Z,7.25
2024-01-28T13:36:46.291Z,7.26
2024-01-28T13:39:14.455Z,7.28
2024-01-28T13:41:41.324Z,7.21
2024-01-28T13:44:08.772Z,7.18
2024-01-28T13:46:38.301Z,7.18
2024-01-28T13:49:06.618Z,7.13
2024-01-28T13:51:34.040Z,7.09
2024-01-28T13:54:01.488Z,7.08
2024-01-28T13:56:28.513Z,6.99
2024-01-28T13:58:56.465Z,7.01
2024-01-28T14:01:24.644Z,7.00
2024-01-28T14:03:51.942Z,6.93
2024-01-28T14:06:21.800Z,6.89
2024-01-28T14:08:50.493Z,6.87
2024-01-28T14:11:17.444Z,6.85
2024-01-28T14:13:44.755Z,6.82
2024-01-28T14:16:13.705Z,6.83
2024-01-28T14:18:40.936Z,6.83
2024-01-28T14:21:10.952Z,6.81
2024-01-28T14:23:39.162Z,6.81
2024-01-28T14:26:06.263Z,6.77
2024-01-28T14:28:33.544Z,6.74
2024-01-28T14:31:05.624Z,6.69
2024-01-28T14:33:35.558Z,6.66
2024-01-28T14:36:02.595Z,6.59
2024-01-28T14:38:30.091Z,6.58
2024-01-28T14:40:57.021Z,6.55
2024-01-28T14:43:26.397Z,6.48
2024-01-28T14:45:59.939Z,6.45
2024-01-28T14:48:28.030Z,6.34
2024-01-28T14:50:56.618Z,6.28
2024-01-28T14:53:26.922Z,6.22
2024-01-28T14:55:53.841Z,6.13
2024-01-28T14:58:21.308Z,6.12
2024-01-28T15:00:50.923Z,6.02
2024-01-28T15:03:19.422Z,5.98
2024-01-28T15:05:49.101Z,5.85
2024-01-28T15:08:16.258Z,5.75
2024-01-28T15:10:43.380Z,5.68
2024-01-28T15:13:10.727Z,5.71
2024-01-28T15:15:37.753Z,5.70
2024-01-28T15:18:05.152Z,5.60
2024-01-28T15:20:32.201Z,5.55
2024-01-28T15:22:59.358Z,5.40
2024-01-28T15:25:26.241Z,5.33
2024-01-28T15:27:54.409Z,5.23
2024-01-28T15:30:22.215Z,5.17
2024-01-28T15:32:49.613Z,5.02
2024-01-28T15:35:16.573Z,4.90
2024-01-28T15:37:43.843Z,4.80
2024-01-28T15:40:13.011Z,4.67
2024-01-28T15:42:40.830Z,4.61
2024-01-28T15:45:08.679Z,4.47
2024-01-28T15:47:38.429Z,4.38
2024-01-28T15:50:05.600Z,4.31
2024-01-28T15:52:32.828Z,4.19
2024-01-28T15:54:59.939Z,4.08
2024-01-28T15:57:27.474Z,4.01
2024-01-28T16:00:06.542Z,3.92
2024-01-28T16:02:35.724Z,3.84
2024-01-28T16:05:03.073Z,3.69
2024-01-28T16:07:30.645Z,3.57
2024-01-28T16:09:58.242Z,3.45
2024-01-28T16:12:25.826Z,3.34
2024-01-28T16:14:52.978Z,3.23
2024-01-28T16:17:24.794Z,3.11
2024-01-28T16:19:52.230Z,3.00
2024-01-28T16:22:19.875Z,2.81
2024-01-28T16:24:46.785Z,2.64
2024-01-28T16:27:14.243Z,2.47
2024-01-28T16:29:44.549Z,2.34
2024-01-28T16:32:13.340Z,2.23
2024-01-28T16:34:40.858Z,2.17
2024-01-28T16:37:08.262Z,2.12
2024-01-28T16:39:35.683Z,2.05
2024-01-28T16:42:03.067Z,2.02
2024-01-28T16:44:30.156Z,1.96
2024-01-28T16:46:57.546Z,1.87
2024-01-28T16:49:25.829Z,1.75
2024-01-28T16:51:54.000Z,1.66
2024-01-28T16:54:21.029Z,1.55
2024-01-28T16:56:51.368Z,1.45
2024-01-28T16:59:19.247Z,1.37
2024-01-28T17:01:48.802Z,1.33
2024-01-28T17:04:16.255Z,1.24
2024-01-28T17:06:46.703Z,1.18
2024-01-28T17:09:17.480Z,1.11
2024-01-28T17:11:44.823Z,1.03
2024-01-28T17:14:12.506Z,1.00
2024-01-28T17:16:42.103Z,0.97
2024-01-28T17:19:09.724Z,0.91
2024-01-28T17:21:37.367Z,0.88
2024-01-28T17:24:04.690Z,0.83
2024-01-28T17:26:32.120Z,0.75
2024-01-28T17:29:01.314Z,0.66
2024-01-28T17:31:32.801Z,0.60
2024-01-28T17:34:00.484Z,0.52
2024-01-28T17:36:28.665Z,0.52
2024-01-28T17:38:56.400Z,0.47
2024-01-28T17:41:24.264Z,0.48
2024-01-28T17:43:54.599Z,0.41
2024-01-28T17:46:22.451Z,0.37
2024-01-28T17:48:49.962Z,0.31
2024-01-28T17:51:17.968Z,0.30
2024-01-28T17:53:46.330Z,0.21
2024-01-28T17:56:17.303Z,0.14
2024-01-28T17:58:44.680Z,0.13
2024-01-28T18:01:12.957Z,0.11
2024-01-28T18:03:42.388Z,0.04
2024-01-28T18:06:11.284Z,-0.01
2024-01-28T18:08:39.280Z,-0.08
2024-01-28T18:11:07.474Z,-0.13
2024-01-28T18:13:40.819Z,-0.15
2024-01-28T18:16:11.754Z,-0.18
2024-01-28T18:18:42.801Z,-0.23
2024-01-28T18:21:13.071Z,-0.27
2024-01-28T18:23:41.871Z,-0.32
2024-01-28T18:26:10.140Z,-0.37
2024-01-28T18:28:37.886Z,-0.40
2024-01-28T18:31:06.164Z,-0.43
2024-01-28T18:33:38.185Z,-0.46
2024-01-28T18:36:07.258Z,-0.49
2024-01-28T18:38:37.537Z,-0.50
2024-01-28T18:41:10.268Z,-0.54
2024-01-28T18:43:38.494Z,-0.59
2024-01-28T18:46:06.658Z,-0.60
2024-01-28T18:48:35.043Z,-0.63
2024-01-28T18:51:03.640Z,-0.62
2024-01-28T18:53:31.493Z,-0.63
2024-01-28T18:56:00.500Z,-0.64
2024-01-28T18:58:28.572Z,-0.56
2024-01-28T19:00:56.860Z,-0.60
2024-01-28T19:03:25.490Z,-0.59
2024-01-28T19:05:54.327Z,-0.59
2024-01-28T19:08:25.361Z,-0.64
2024-01-28T19:10:54.033Z,-0.67
2024-01-28T19:13:26.242Z,-0.72
2024-01-28T19:15:54.969Z,-0.77
2024-01-28T19:18:26.874Z,-0.79
2024-01-28T19:20:55.501Z,-0.83
2024-01-28T19:23:23.473Z,-0.87
2024-01-28T19:25:51.821Z,-0.87
2024-01-28T19:28:19.749Z,-0.84
2024-01-28T19:30:47.978Z,-0.87
2024-01-28T19:33:18.221Z,-0.91
2024-01-28T19:35:52.456Z,-0.93
2024-01-28T19:38:24.993Z,-0.97
2024-01-28T19:40:54.497Z,-0.99
2024-01-28T19:43:22.886Z,-1.03
2024-01-28T19:45:51.659Z,-1.08
2024-01-28T19:48:20.564Z,-1.05
2024-01-28T19:50:51.642Z,-1.15
2024-01-28T19:53:22.675Z,-1.20
2024-01-28T19:55:51.353Z,-1.24
2024-01-28T19:58:20.288Z,-1.28
2024-01-28T20:00:48.564Z,-1.29
2024-01-28T20:03:19.563Z,-1.31
2024-01-28T20:05:48.147Z,-1.32
2024-01-28T20:08:17.960Z,-1.37
2024-01-28T20:10:46.738Z,-1.37
2024-01-28T20:13:16.801Z,-1.36
2024-01-28T20:15:52.445Z,-1.38
2024-01-28T20:18:24.237Z,-1.38
2024-01-28T20:20:54.606Z,-1.41
2024-01-28T20:23:22.930Z,-1.43
2024-01-28T20:25:56.221Z,-1.45
2024-01-28T20:28:28.428Z,-1.47
2024-01-28T20:30:58.971Z,-1.52
2024-01-28T20:33:27.370Z,-1.52
2024-01-28T20:35:57.761Z,-1.57
2024-01-28T20:38:25.853Z,-1.58
2024-01-28T20:40:54.094Z,-1.60
2024-01-28T20:43:22.123Z,-1.61
2024-01-28T20:45:50.203Z,-1.64
2024-01-28T20:48:20.018Z,-1.67
2024-01-28T20:50:48.297Z,-1.70
2024-01-28T20:53:16.401Z,-1.73
2024-01-28T20:55:45.203Z,-1.76
2024-01-28T20:58:13.076Z,-1.79
2024-01-28T21:00:41.024Z,-1.82
2024-01-28T21:03:08.538Z,-1.83
2024-01-28T21:05:37.998Z,-1.86
2024-01-28T21:08:05.787Z,-1.89
2024-01-28T21:10:34.752Z,-1.93
2024-01-28T21:13:02.261Z,-1.95
2024-01-28T21:15:29.753Z,-2.00
2024-01-28T21:17:57.388Z,-2.03
2024-01-28T21:20:26.149Z,-2.08
2024-01-28T21:22:54.385Z,-2.13
2024-01-28T21:25:21.801Z,-2.17
2024-01-28T21:27:52.015Z,-2.21
2024-01-28T21:30:19.418Z,-2.27
2024-01-28T21:32:46.519Z,-2.30
2024-01-28T21:35:14.348Z,-2.31
2024-01-28T21:37:41.342Z,-2.35
2024-01-28T21:40:09.158Z,-2.36
2024-01-28T21:42:38.873Z,-2.40
2024-01-28T21:45:06.438Z,-2.40
2024-01-28T21:47:34.009Z,-2.47
2024-01-28T21:50:01.545Z,-2.48
2024-01-28T21:52:28.577Z,-2.49
2024-01-28T21:54:56.017Z,-2.52
2024-01-28T21:57:25.776Z,-2.54
2024-01-28T21:59:53.110Z,-2.56
2024-01-28T22:02:19.981Z,-2.59
2024-01-28T22:04:49.735Z,-2.59
2024-01-28T22:07:16.724Z,-2.59
2024-01-28T22:09:44.572Z,-2.57
2024-01-28T22:12:11.652Z,-2.60
2024-01-28T22:14:38.947Z,-2.61
2024-01-28T22:17:05.970Z,-2.61
2024-01-28T22:19:33.584Z,-2.65
2024-01-28T22:22:00.780Z,-2.62
2024-01-28T22:24:28.305Z,-2.56
2024-01-28T22:26:55.946Z,-2.60
2024-01-28T22:29:23.752Z,-2.66
2024-01-28T22:31:50.744Z,-2.67
2024-01-28T22:34:18.211Z,-2.69
2024-01-28T22:36:47.294Z,-2.74
2024-01-28T22:39:16.259Z,-2.75
2024-01-28T22:41:45.644Z,-2.78
2024-01-28T22:44:12.994Z,-2.77
2024-01-28T22:46:39.855Z,-2.80
2024-01-28T22:49:08.202Z,-2.81
2024-01-28T22:51:35.356Z,-2.82
2024-01-28T22:54:03.489Z,-2.85
2024-01-28T22:56:30.513Z,-2.82
2024-01-28T22:58:57.665Z,-2.87
2024-01-28T23:01:27.290Z,-2.85
2024-01-28T23:03:54.835Z,-2.84
2024-01-28T23:06:23.802Z,-2.86
2024-01-28T23:08:51.238Z,-2.86
2024-01-28T23:11:18.137Z,-2.90
2024-01-28T23:13:47.850Z,-2.95
2024-01-28T23:16:14.743Z,-2.98
2024-01-28T23:18:42.445Z,-3.01
2024-01-28T23:21:09.515Z,-3.05
2024-01-28T23:23:37.425Z,-3.09
2024-01-28T23:26:04.381Z,-3.12
2024-01-28T23:28:31.552Z,-3.14
2024-01-28T23:30:58.520Z,-3.15
2024-01-28T23:33:25.969Z,-3.14
2024-01-28T23:35:55.338Z,-3.13
2024-01-28T23:38:22.524Z,-3.16
2024-01-28T23:40:49.470Z,-3.18
2024-01-28T23:43:16.722Z,-3.20
2024-01-28T23:45:43.773Z,-3.18
2024-01-28T23:48:11.075Z,-3.17
2024-01-28T23:50:38.073Z,-3.15
2024-01-28T23:53:05.940Z,-3.16
2024-01-28T23:55:33.023Z,-3.15
2024-01-28T23:58:00.276Z,-3.18
